PIK weather

Glasgow Prestwick Airport
Glasgow, Scotland, United Kingdom

Public forecast

Using degrees Celsius for public forecast. Weather courtesy of forecast.io.

METAR (pilot weather report)

Retrieved 2018/10/20 03:50 UTC (1 hour ago):

EGPK 200350Z 20005KT 9999 SCT038 13/11 Q1025

TAF (pilot weather forecast)

Forecast is more than 12 hours old.

Retrieved 2018/10/19 00:00 UTC (1 day ago):

TAF EGPK 192255Z 2000/2024 20006KT 9999 SCT030 BECMG 2002/2005 BKN010 TEMPO 2004/2024 4000 RADZ BKN007 PROB30 TEMPO 2006/2024 19015G25KT PROB30 TEMPO 2014/2024 BKN004